sensor_id;sensor_type;location;lat;lon;timestamp;temperature;humidity
75387;DHT22;63966;47.914;22.266;2024-01-30T00:02:54;-1.32;87.53
75387;DHT22;63966;47.914;22.266;2024-01-30T00:05:57;-1.46;88.15
75387;DHT22;63966;47.914;22.266;2024-01-30T00:09:02;-1.29;87.95
75387;DHT22;63966;47.914;22.266;2024-01-30T00:12:06;-1.35;88.00
75387;DHT22;63966;47.914;22.266;2024-01-30T00:15:09;-1.38;87.82
75387;DHT22;63966;47.914;22.266;2024-01-30T00:18:13;-1.35;87.26
75387;DHT22;63966;47.914;22.266;2024-01-30T00:21:17;-1.43;87.53
75387;DHT22;63966;47.914;22.266;2024-01-30T00:24:20;-1.56;87.89
75387;DHT22;63966;47.914;22.266;2024-01-30T00:27:24;-1.68;88.15
75387;DHT22;63966;47.914;22.266;2024-01-30T00:30:27;-1.68;88.30
75387;DHT22;63966;47.914;22.266;2024-01-30T00:33:31;-1.66;87.88
75387;DHT22;63966;47.914;22.266;2024-01-30T00:36:34;-1.66;88.24
75387;DHT22;63966;47.914;22.266;2024-01-30T00:39:38;-1.77;88.64
75387;DHT22;63966;47.914;22.266;2024-01-30T00:42:42;-1.68;88.86
75387;DHT22;63966;47.914;22.266;2024-01-30T00:45:46;-1.71;88.80
75387;DHT22;63966;47.914;22.266;2024-01-30T00:48:49;-1.81;89.07
75387;DHT22;63966;47.914;22.266;2024-01-30T00:51:53;-1.87;89.11
75387;DHT22;63966;47.914;22.266;2024-01-30T00:54:56;-1.87;88.82
75387;DHT22;63966;47.914;22.266;2024-01-30T00:58:00;-1.92;89.21
75387;DHT22;63966;47.914;22.266;2024-01-30T01:01:03;-1.88;89.13
75387;DHT22;63966;47.914;22.266;2024-01-30T01:04:07;-1.90;88.89
75387;DHT22;63966;47.914;22.266;2024-01-30T01:07:11;-1.84;88.64
75387;DHT22;63966;47.914;22.266;2024-01-30T01:10:16;-1.87;87.88
75387;DHT22;63966;47.914;22.266;2024-01-30T01:13:20;-2.09;87.67
75387;DHT22;63966;47.914;22.266;2024-01-30T01:16:23;-2.12;87.86
75387;DHT22;63966;47.914;22.266;2024-01-30T01:19:27;-2.08;88.87
75387;DHT22;63966;47.914;22.266;2024-01-30T01:22:31;-1.97;88.89
75387;DHT22;63966;47.914;22.266;2024-01-30T01:25:34;-1.92;88.87
75387;DHT22;63966;47.914;22.266;2024-01-30T01:28:39;-1.95;88.42
75387;DHT22;63966;47.914;22.266;2024-01-30T01:31:42;-2.01;88.38
75387;DHT22;63966;47.914;22.266;2024-01-30T01:34:49;-1.98;88.31
75387;DHT22;63966;47.914;22.266;2024-01-30T01:37:53;-1.94;88.08
75387;DHT22;63966;47.914;22.266;2024-01-30T01:41:01;-1.91;87.78
75387;DHT22;63966;47.914;22.266;2024-01-30T01:44:04;-1.77;87.17
75387;DHT22;63966;47.914;22.266;2024-01-30T01:56:42;-2.01;87.65
75387;DHT22;63966;47.914;22.266;2024-01-30T01:59:45;-1.87;86.97
75387;DHT22;63966;47.914;22.266;2024-01-30T02:02:50;-2.29;87.30
75387;DHT22;63966;47.914;22.266;2024-01-30T02:05:54;-2.48;87.15
75387;DHT22;63966;47.914;22.266;2024-01-30T02:08:58;-2.54;87.02
75387;DHT22;63966;47.914;22.266;2024-01-30T02:12:01;-2.59;85.72
75387;DHT22;63966;47.914;22.266;2024-01-30T02:15:05;-2.95;86.14
75387;DHT22;63966;47.914;22.266;2024-01-30T02:18:10;-3.16;87.09
75387;DHT22;63966;47.914;22.266;2024-01-30T02:21:18;-3.55;87.31
75387;DHT22;63966;47.914;22.266;2024-01-30T02:24:22;-3.57;87.75
75387;DHT22;63966;47.914;22.266;2024-01-30T02:27:25;-3.48;87.80
75387;DHT22;63966;47.914;22.266;2024-01-30T02:30:29;-3.31;88.31
75387;DHT22;63966;47.914;22.266;2024-01-30T02:33:32;-3.12;88.85
75387;DHT22;63966;47.914;22.266;2024-01-30T02:36:36;-2.94;88.64
75387;DHT22;63966;47.914;22.266;2024-01-30T02:39:39;-2.83;88.31
75387;DHT22;63966;47.914;22.266;2024-01-30T02:42:42;-2.81;88.47
75387;DHT22;63966;47.914;22.266;2024-01-30T02:45:47;-2.80;87.96
75387;DHT22;63966;47.914;22.266;2024-01-30T02:48:50;-2.88;88.60
75387;DHT22;63966;47.914;22.266;2024-01-30T02:51:54;-2.98;88.52
75387;DHT22;63966;47.914;22.266;2024-01-30T02:55:00;-3.01;88.01
75387;DHT22;63966;47.914;22.266;2024-01-30T02:58:04;-3.02;87.95
75387;DHT22;63966;47.914;22.266;2024-01-30T03:01:07;-2.91;87.82
75387;DHT22;63966;47.914;22.266;2024-01-30T03:04:11;-2.80;88.05
75387;DHT22;63966;47.914;22.266;2024-01-30T03:07:15;-2.60;87.82
75387;DHT22;63966;47.914;22.266;2024-01-30T03:10:18;-2.74;87.40
75387;DHT22;63966;47.914;22.266;2024-01-30T03:13:22;-2.88;87.31
75387;DHT22;63966;47.914;22.266;2024-01-30T03:16:28;-2.92;87.30
75387;DHT22;63966;47.914;22.266;2024-01-30T03:19:31;-2.76;88.38
75387;DHT22;63966;47.914;22.266;2024-01-30T03:22:35;-2.61;88.52
75387;DHT22;63966;47.914;22.266;2024-01-30T03:25:38;-2.52;88.28
75387;DHT22;63966;47.914;22.266;2024-01-30T03:28:42;-2.40;87.61
75387;DHT22;63966;47.914;22.266;2024-01-30T03:31:45;-2.38;87.58
75387;DHT22;63966;47.914;22.266;2024-01-30T03:34:48;-2.31;87.61
75387;DHT22;63966;47.914;22.266;2024-01-30T03:37:52;-2.16;86.63
75387;DHT22;63966;47.914;22.266;2024-01-30T03:40:55;-2.19;86.26
75387;DHT22;63966;47.914;22.266;2024-01-30T03:43:59;-2.19;85.94
75387;DHT22;63966;47.914;22.266;2024-01-30T03:47:02;-2.21;85.84
75387;DHT22;63966;47.914;22.266;2024-01-30T03:50:06;-2.25;86.65
75387;DHT22;63966;47.914;22.266;2024-01-30T03:53:10;-2.12;86.39
75387;DHT22;63966;47.914;22.266;2024-01-30T03:56:13;-2.23;86.81
75387;DHT22;63966;47.914;22.266;2024-01-30T03:59:17;-2.36;87.04
75387;DHT22;63966;47.914;22.266;2024-01-30T04:02:25;-2.33;86.97
75387;DHT22;63966;47.914;22.266;2024-01-30T04:05:29;-2.28;86.89
75387;DHT22;63966;47.914;22.266;2024-01-30T04:08:32;-2.13;85.85
75387;DHT22;63966;47.914;22.266;2024-01-30T04:11:35;-2.46;86.97
75387;DHT22;63966;47.914;22.266;2024-01-30T04:14:40;-2.52;86.81
75387;DHT22;63966;47.914;22.266;2024-01-30T04:17:43;-2.42;86.18
75387;DHT22;63966;47.914;22.266;2024-01-30T04:20:47;-2.59;86.82
75387;DHT22;63966;47.914;22.266;2024-01-30T04:23:51;-2.88;87.37
75387;DHT22;63966;47.914;22.266;2024-01-30T04:26:55;-3.09;88.07
75387;DHT22;63966;47.914;22.266;2024-01-30T04:29:58;-3.22;87.22
75387;DHT22;63966;47.914;22.266;2024-01-30T04:33:02;-3.18;87.12
75387;DHT22;63966;47.914;22.266;2024-01-30T04:36:08;-3.31;87.47
75387;DHT22;63966;47.914;22.266;2024-01-30T04:39:15;-3.43;88.27
75387;DHT22;63966;47.914;22.266;2024-01-30T04:42:18;-3.32;88.19
75387;DHT22;63966;47.914;22.266;2024-01-30T04:45:22;-3.38;88.44
75387;DHT22;63966;47.914;22.266;2024-01-30T04:48:25;-2.94;88.12
75387;DHT22;63966;47.914;22.266;2024-01-30T04:51:28;-2.79;87.87
75387;DHT22;63966;47.914;22.266;2024-01-30T04:54:33;-3.16;88.73
75387;DHT22;63966;47.914;22.266;2024-01-30T04:57:36;-3.23;89.48
75387;DHT22;63966;47.914;22.266;2024-01-30T05:00:40;-3.22;89.61
75387;DHT22;63966;47.914;22.266;2024-01-30T05:03:43;-3.34;89.67
75387;DHT22;63966;47.914;22.266;2024-01-30T05:06:47;-3.22;89.63
75387;DHT22;63966;47.914;22.266;2024-01-30T05:09:51;-3.08;89.39
75387;DHT22;63966;47.914;22.266;2024-01-30T05:12:57;-3.02;89.20
75387;DHT22;63966;47.914;22.266;2024-01-30T05:16:02;-2.92;89.18
75387;DHT22;63966;47.914;22.266;2024-01-30T05:19:07;-2.53;87.43
75387;DHT22;63966;47.914;22.266;2024-01-30T05:22:10;-2.59;87.43
75387;DHT22;63966;47.914;22.266;2024-01-30T05:25:18;-2.92;88.39
75387;DHT22;63966;47.914;22.266;2024-01-30T05:28:22;-3.27;89.36
75387;DHT22;63966;47.914;22.266;2024-01-30T05:31:25;-3.27;89.23
75387;DHT22;63966;47.914;22.266;2024-01-30T05:34:30;-3.32;88.98
75387;DHT22;63966;47.914;22.266;2024-01-30T05:37:34;-3.38;89.36
75387;DHT22;63966;47.914;22.266;2024-01-30T05:40:37;-3.56;90.04
75387;DHT22;63966;47.914;22.266;2024-01-30T05:43:41;-3.59;89.15
75387;DHT22;63966;47.914;22.266;2024-01-30T05:46:44;-3.50;88.55
75387;DHT22;63966;47.914;22.266;2024-01-30T05:49:48;-3.40;88.42
75387;DHT22;63966;47.914;22.266;2024-01-30T05:52:51;-3.69;88.22
75387;DHT22;63966;47.914;22.266;2024-01-30T05:55:54;-3.80;87.84
75387;DHT22;63966;47.914;22.266;2024-01-30T05:58:58;-3.59;86.53
75387;DHT22;63966;47.914;22.266;2024-01-30T06:02:01;-3.66;86.34
75387;DHT22;63966;47.914;22.266;2024-01-30T06:05:05;-3.88;87.18
75387;DHT22;63966;47.914;22.266;2024-01-30T06:08:08;-3.91;88.12
75387;DHT22;63966;47.914;22.266;2024-01-30T06:11:12;-3.91;87.13
75387;DHT22;63966;47.914;22.266;2024-01-30T06:14:15;-4.08;88.25
75387;DHT22;63966;47.914;22.266;2024-01-30T06:17:19;-4.01;88.70
75387;DHT22;63966;47.914;22.266;2024-01-30T06:20:24;-3.64;88.39
75387;DHT22;63966;47.914;22.266;2024-01-30T06:23:27;-2.66;85.76
75387;DHT22;63966;47.914;22.266;2024-01-30T06:26:31;-1.88;82.18
75387;DHT22;63966;47.914;22.266;2024-01-30T06:29:34;-0.99;78.73
75387;DHT22;63966;47.914;22.266;2024-01-30T06:32:38;-0.26;76.33
75387;DHT22;63966;47.914;22.266;2024-01-30T06:35:41;-0.09;74.28
75387;DHT22;63966;47.914;22.266;2024-01-30T06:38:47;-1.13;76.53
75387;DHT22;63966;47.914;22.266;2024-01-30T06:41:50;-1.06;77.46
75387;DHT22;63966;47.914;22.266;2024-01-30T06:44:55;-1.59;77.52
75387;DHT22;63966;47.914;22.266;2024-01-30T06:47:59;-1.47;78.03
75387;DHT22;63966;47.914;22.266;2024-01-30T06:51:03;-0.18;75.19
75387;DHT22;63966;47.914;22.266;2024-01-30T06:54:10;2.41;67.24
75387;DHT22;63966;47.914;22.266;2024-01-30T06:57:14;3.58;62.92
75387;DHT22;63966;47.914;22.266;2024-01-30T07:00:17;4.07;60.80
75387;DHT22;63966;47.914;22.266;2024-01-30T07:03:22;4.30;60.67
75387;DHT22;63966;47.914;22.266;2024-01-30T07:06:26;5.52;56.91
75387;DHT22;63966;47.914;22.266;2024-01-30T07:09:30;6.72;54.47
75387;DHT22;63966;47.914;22.266;2024-01-30T07:12:34;7.42;51.68
75387;DHT22;63966;47.914;22.266;2024-01-30T07:15:37;7.64;51.26
75387;DHT22;63966;47.914;22.266;2024-01-30T07:18:41;8.05;50.73
75387;DHT22;63966;47.914;22.266;2024-01-30T07:21:44;6.78;53.17
75387;DHT22;63966;47.914;22.266;2024-01-30T07:24:49;7.37;52.39
75387;DHT22;63966;47.914;22.266;2024-01-30T07:27:54;7.37;53.33
75387;DHT22;63966;47.914;22.266;2024-01-30T07:30:57;6.31;55.70
75387;DHT22;63966;47.914;22.266;2024-01-30T07:34:01;6.93;54.85
75387;DHT22;63966;47.914;22.266;2024-01-30T07:37:05;6.85;54.76
75387;DHT22;63966;47.914;22.266;2024-01-30T07:40:11;6.02;57.68
75387;DHT22;63966;47.914;22.266;2024-01-30T07:43:15;6.41;57.13
75387;DHT22;63966;47.914;22.266;2024-01-30T07:46:19;6.84;56.70
75387;DHT22;63966;47.914;22.266;2024-01-30T07:49:22;7.16;56.49
75387;DHT22;63966;47.914;22.266;2024-01-30T07:52:26;6.10;59.33
75387;DHT22;63966;47.914;22.266;2024-01-30T07:55:30;5.72;61.06
75387;DHT22;63966;47.914;22.266;2024-01-30T07:58:35;5.41;62.63
75387;DHT22;63966;47.914;22.266;2024-01-30T08:01:39;4.65;65.17
75387;DHT22;63966;47.914;22.266;2024-01-30T08:04:43;4.13;66.88
75387;DHT22;63966;47.914;22.266;2024-01-30T08:07:46;3.68;69.92
75387;DHT22;63966;47.914;22.266;2024-01-30T08:10:50;2.94;72.07
75387;DHT22;63966;47.914;22.266;2024-01-30T08:13:54;2.39;73.51
75387;DHT22;63966;47.914;22.266;2024-01-30T08:16:58;2.35;75.60
75387;DHT22;63966;47.914;22.266;2024-01-30T08:20:01;2.15;75.83
75387;DHT22;63966;47.914;22.266;2024-01-30T08:23:07;2.25;76.39
75387;DHT22;63966;47.914;22.266;2024-01-30T08:26:10;2.01;77.10
75387;DHT22;63966;47.914;22.266;2024-01-30T08:29:13;2.24;76.93
75387;DHT22;63966;47.914;22.266;2024-01-30T08:32:18;2.25;76.79
75387;DHT22;63966;47.914;22.266;2024-01-30T08:35:21;2.22;77.57
75387;DHT22;63966;47.914;22.266;2024-01-30T08:38:25;2.41;77.33
75387;DHT22;63966;47.914;22.266;2024-01-30T08:41:28;2.54;77.21
75387;DHT22;63966;47.914;22.266;2024-01-30T08:44:32;2.57;76.44
75387;DHT22;63966;47.914;22.266;2024-01-30T08:47:36;2.62;76.18
75387;DHT22;63966;47.914;22.266;2024-01-30T08:50:39;2.62;76.95
75387;DHT22;63966;47.914;22.266;2024-01-30T08:53:43;2.63;76.60
75387;DHT22;63966;47.914;22.266;2024-01-30T08:56:46;2.83;75.92
75387;DHT22;63966;47.914;22.266;2024-01-30T08:59:53;2.69;75.79
75387;DHT22;63966;47.914;22.266;2024-01-30T09:02:57;2.60;76.25
75387;DHT22;63966;47.914;22.266;2024-01-30T09:06:00;2.75;76.30
75387;DHT22;63966;47.914;22.266;2024-01-30T09:09:04;2.89;75.56
75387;DHT22;63966;47.914;22.266;2024-01-30T09:12:08;2.84;75.60
75387;DHT22;63966;47.914;22.266;2024-01-30T09:15:15;2.99;75.11
75387;DHT22;63966;47.914;22.266;2024-01-30T09:18:19;3.14;74.64
75387;DHT22;63966;47.914;22.266;2024-01-30T09:21:22;3.18;75.25
75387;DHT22;63966;47.914;22.266;2024-01-30T09:24:27;3.24;74.44
75387;DHT22;63966;47.914;22.266;2024-01-30T09:27:31;3.43;73.84
75387;DHT22;63966;47.914;22.266;2024-01-30T09:30:34;3.38;73.72
75387;DHT22;63966;47.914;22.266;2024-01-30T09:33:38;3.32;73.65
75387;DHT22;63966;47.914;22.266;2024-01-30T09:36:43;3.43;73.90
75387;DHT22;63966;47.914;22.266;2024-01-30T09:39:47;3.52;73.43
75387;DHT22;63966;47.914;22.266;2024-01-30T09:42:51;3.58;73.13
75387;DHT22;63966;47.914;22.266;2024-01-30T09:45:58;3.63;71.84
75387;DHT22;63966;47.914;22.266;2024-01-30T09:49:02;3.83;71.94
75387;DHT22;63966;47.914;22.266;2024-01-30T09:52:09;3.90;71.97
75387;DHT22;63966;47.914;22.266;2024-01-30T09:55:13;3.97;72.07
75387;DHT22;63966;47.914;22.266;2024-01-30T09:58:16;4.11;70.94
75387;DHT22;63966;47.914;22.266;2024-01-30T10:01:20;4.35;70.29
75387;DHT22;63966;47.914;22.266;2024-01-30T10:04:24;4.20;69.72
75387;DHT22;63966;47.914;22.266;2024-01-30T10:07:31;4.21;70.65
75387;DHT22;63966;47.914;22.266;2024-01-30T10:10:35;4.30;70.25
75387;DHT22;63966;47.914;22.266;2024-01-30T10:13:39;4.20;69.87
75387;DHT22;63966;47.914;22.266;2024-01-30T10:16:45;4.34;68.75
75387;DHT22;63966;47.914;22.266;2024-01-30T10:19:49;4.33;69.73
75387;DHT22;63966;47.914;22.266;2024-01-30T10:22:54;4.59;69.27
75387;DHT22;63966;47.914;22.266;2024-01-30T10:25:58;4.28;69.11
75387;DHT22;63966;47.914;22.266;2024-01-30T10:29:01;4.03;70.72
75387;DHT22;63966;47.914;22.266;2024-01-30T10:32:06;4.17;70.40
75387;DHT22;63966;47.914;22.266;2024-01-30T10:35:09;4.42;69.76
75387;DHT22;63966;47.914;22.266;2024-01-30T10:38:15;4.73;69.11
75387;DHT22;63966;47.914;22.266;2024-01-30T10:41:26;4.61;69.66
75387;DHT22;63966;47.914;22.266;2024-01-30T10:44:36;4.49;69.27
75387;DHT22;63966;47.914;22.266;2024-01-30T10:47:53;4.48;69.17
75387;DHT22;63966;47.914;22.266;2024-01-30T10:50:58;4.77;68.97
75387;DHT22;63966;47.914;22.266;2024-01-30T10:54:04;4.69;69.09
75387;DHT22;63966;47.914;22.266;2024-01-30T10:57:08;4.83;68.02
75387;DHT22;63966;47.914;22.266;2024-01-30T11:00:14;4.76;68.18
75387;DHT22;63966;47.914;22.266;2024-01-30T11:03:19;4.48;68.65
75387;DHT22;63966;47.914;22.266;2024-01-30T11:06:25;4.72;68.43
75387;DHT22;63966;47.914;22.266;2024-01-30T11:09:29;4.87;67.88
75387;DHT22;63966;47.914;22.266;2024-01-30T11:12:38;4.66;67.77
75387;DHT22;63966;47.914;22.266;2024-01-30T11:15:44;4.51;68.74
75387;DHT22;63966;47.914;22.266;2024-01-30T11:18:51;4.79;68.38
75387;DHT22;63966;47.914;22.266;2024-01-30T11:21:57;4.96;67.44
75387;DHT22;63966;47.914;22.266;2024-01-30T11:25:02;5.14;66.36
75387;DHT22;63966;47.914;22.266;2024-01-30T11:28:14;5.09;67.31
75387;DHT22;63966;47.914;22.266;2024-01-30T11:31:19;5.06;67.08
75387;DHT22;63966;47.914;22.266;2024-01-30T11:34:23;5.04;66.47
75387;DHT22;63966;47.914;22.266;2024-01-30T11:37:27;5.27;66.09
75387;DHT22;63966;47.914;22.266;2024-01-30T11:40:33;5.40;64.84
75387;DHT22;63966;47.914;22.266;2024-01-30T11:43:37;5.14;64.70
75387;DHT22;63966;47.914;22.266;2024-01-30T11:46:42;5.20;64.87
75387;DHT22;63966;47.914;22.266;2024-01-30T11:49:45;5.54;64.56
75387;DHT22;63966;47.914;22.266;2024-01-30T11:52:49;5.28;64.64
75387;DHT22;63966;47.914;22.266;2024-01-30T11:55:53;5.41;64.26
75387;DHT22;63966;47.914;22.266;2024-01-30T11:58:57;5.27;64.17
75387;DHT22;63966;47.914;22.266;2024-01-30T12:02:00;5.21;64.82
75387;DHT22;63966;47.914;22.266;2024-01-30T12:05:05;5.38;63.93
75387;DHT22;63966;47.914;22.266;2024-01-30T12:08:15;5.34;64.67
75387;DHT22;63966;47.914;22.266;2024-01-30T12:11:20;5.56;63.54
75387;DHT22;63966;47.914;22.266;2024-01-30T12:14:23;5.45;63.88
75387;DHT22;63966;47.914;22.266;2024-01-30T12:17:32;5.44;64.03
75387;DHT22;63966;47.914;22.266;2024-01-30T12:20:36;5.33;63.32
75387;DHT22;63966;47.914;22.266;2024-01-30T12:23:40;5.24;63.12
75387;DHT22;63966;47.914;22.266;2024-01-30T12:26:45;5.56;62.04
75387;DHT22;63966;47.914;22.266;2024-01-30T12:29:54;5.52;62.60
75387;DHT22;63966;47.914;22.266;2024-01-30T12:32:58;5.28;62.55
75387;DHT22;63966;47.914;22.266;2024-01-30T12:36:02;5.24;62.91
75387;DHT22;63966;47.914;22.266;2024-01-30T12:39:11;5.56;62.84
75387;DHT22;63966;47.914;22.266;2024-01-30T12:42:17;5.35;63.79
75387;DHT22;63966;47.914;22.266;2024-01-30T12:45:20;5.41;63.47
75387;DHT22;63966;47.914;22.266;2024-01-30T12:48:26;5.75;61.71
75387;DHT22;63966;47.914;22.266;2024-01-30T12:51:34;5.55;62.82
75387;DHT22;63966;47.914;22.266;2024-01-30T12:54:38;5.86;63.26
75387;DHT22;63966;47.914;22.266;2024-01-30T12:57:42;5.95;66.72
75387;DHT22;63966;47.914;22.266;2024-01-30T13:00:46;5.63;66.88
75387;DHT22;63966;47.914;22.266;2024-01-30T13:03:51;5.41;66.67
75387;DHT22;63966;47.914;22.266;2024-01-30T13:06:56;5.76;62.40
75387;DHT22;63966;47.914;22.266;2024-01-30T13:10:01;5.69;66.36
75387;DHT22;63966;47.914;22.266;2024-01-30T13:13:07;5.65;66.70
75387;DHT22;63966;47.914;22.266;2024-01-30T13:16:21;5.58;67.71
75387;DHT22;63966;47.914;22.266;2024-01-30T13:19:24;5.61;67.17
75387;DHT22;63966;47.914;22.266;2024-01-30T13:22:28;5.51;67.21
75387;DHT22;63966;47.914;22.266;2024-01-30T13:25:32;5.47;67.27
75387;DHT22;63966;47.914;22.266;2024-01-30T13:28:35;5.40;67.57
75387;DHT22;63966;47.914;22.266;2024-01-30T13:31:39;5.40;67.37
75387;DHT22;63966;47.914;22.266;2024-01-30T13:34:43;5.31;67.02
75387;DHT22;63966;47.914;22.266;2024-01-30T13:37:47;5.24;68.32
75387;DHT22;63966;47.914;22.266;2024-01-30T13:40:51;5.04;68.87
75387;DHT22;63966;47.914;22.266;2024-01-30T13:43:55;5.26;68.09
75387;DHT22;63966;47.914;22.266;2024-01-30T13:46:59;5.26;67.97
75387;DHT22;63966;47.914;22.266;2024-01-30T13:50:03;5.20;68.14
75387;DHT22;63966;47.914;22.266;2024-01-30T13:53:07;5.21;68.32
75387;DHT22;63966;47.914;22.266;2024-01-30T13:56:11;5.12;68.51
75387;DHT22;63966;47.914;22.266;2024-01-30T13:59:14;5.01;68.31
75387;DHT22;63966;47.914;22.266;2024-01-30T14:02:18;5.06;68.04
75387;DHT22;63966;47.914;22.266;2024-01-30T14:05:21;5.06;67.99
75387;DHT22;63966;47.914;22.266;2024-01-30T14:08:26;5.04;68.84
75387;DHT22;63966;47.914;22.266;2024-01-30T14:11:31;4.94;68.68
75387;DHT22;63966;47.914;22.266;2024-01-30T14:14:34;4.89;68.98
75387;DHT22;63966;47.914;22.266;2024-01-30T14:17:38;4.85;69.06
75387;DHT22;63966;47.914;22.266;2024-01-30T14:20:41;4.85;69.51
75387;DHT22;63966;47.914;22.266;2024-01-30T14:23:45;4.83;69.60
75387;DHT22;63966;47.914;22.266;2024-01-30T14:26:50;4.73;70.05
75387;DHT22;63966;47.914;22.266;2024-01-30T14:29:55;4.56;70.64
75387;DHT22;63966;47.914;22.266;2024-01-30T14:32:59;4.48;71.01
75387;DHT22;63966;47.914;22.266;2024-01-30T14:36:02;4.54;70.33
75387;DHT22;63966;47.914;22.266;2024-01-30T14:39:06;4.54;69.71
75387;DHT22;63966;47.914;22.266;2024-01-30T14:42:13;4.42;69.78
75387;DHT22;63966;47.914;22.266;2024-01-30T14:45:16;4.37;69.86
75387;DHT22;63966;47.914;22.266;2024-01-30T14:48:20;4.33;69.93
75387;DHT22;63966;47.914;22.266;2024-01-30T14:51:24;4.34;70.24
75387;DHT22;63966;47.914;22.266;2024-01-30T14:54:28;4.16;70.94
75387;DHT22;63966;47.914;22.266;2024-01-30T14:57:31;4.18;70.74
75387;DHT22;63966;47.914;22.266;2024-01-30T15:00:35;4.17;70.71
75387;DHT22;63966;47.914;22.266;2024-01-30T15:03:41;4.18;70.82
75387;DHT22;63966;47.914;22.266;2024-01-30T15:06:46;4.08;71.05
75387;DHT22;63966;47.914;22.266;2024-01-30T15:09:51;3.97;71.40
75387;DHT22;63966;47.914;22.266;2024-01-30T15:12:55;3.94;71.63
75387;DHT22;63966;47.914;22.266;2024-01-30T15:15:58;3.86;71.72
75387;DHT22;63966;47.914;22.266;2024-01-30T15:19:03;3.76;71.57
75387;DHT22;63966;47.914;22.266;2024-01-30T15:22:08;3.60;72.14
75387;DHT22;63966;47.914;22.266;2024-01-30T15:25:12;3.42;72.81
75387;DHT22;63966;47.914;22.266;2024-01-30T15:28:15;3.49;72.75
75387;DHT22;63966;47.914;22.266;2024-01-30T15:31:20;3.39;73.05
75387;DHT22;63966;47.914;22.266;2024-01-30T15:34:23;3.32;73.34
75387;DHT22;63966;47.914;22.266;2024-01-30T15:37:27;3.15;74.01
75387;DHT22;63966;47.914;22.266;2024-01-30T15:40:31;3.12;74.00
75387;DHT22;63966;47.914;22.266;2024-01-30T15:43:35;3.18;73.89
75387;DHT22;63966;47.914;22.266;2024-01-30T15:46:39;3.11;73.93
75387;DHT22;63966;47.914;22.266;2024-01-30T15:49:44;3.11;74.02
75387;DHT22;63966;47.914;22.266;2024-01-30T15:52:47;3.07;73.96
75387;DHT22;63966;47.914;22.266;2024-01-30T15:55:51;3.04;74.19
75387;DHT22;63966;47.914;22.266;2024-01-30T15:58:54;3.00;74.39
75387;DHT22;63966;47.914;22.266;2024-01-30T16:01:58;2.83;74.64
75387;DHT22;63966;47.914;22.266;2024-01-30T16:05:02;2.84;74.64
75387;DHT22;63966;47.914;22.266;2024-01-30T16:08:06;2.77;75.25
75387;DHT22;63966;47.914;22.266;2024-01-30T16:11:10;2.83;74.99
75387;DHT22;63966;47.914;22.266;2024-01-30T16:14:13;2.66;75.41
75387;DHT22;63966;47.914;22.266;2024-01-30T16:17:17;2.52;75.83
75387;DHT22;63966;47.914;22.266;2024-01-30T16:20:21;2.31;76.52
75387;DHT22;63966;47.914;22.266;2024-01-30T16:23:25;2.18;77.08
75387;DHT22;63966;47.914;22.266;2024-01-30T16:26:30;2.20;77.17
75387;DHT22;63966;47.914;22.266;2024-01-30T16:29:34;2.17;77.35
75387;DHT22;63966;47.914;22.266;2024-01-30T16:32:38;2.15;77.50
75387;DHT22;63966;47.914;22.266;2024-01-30T16:35:42;2.05;77.73
75387;DHT22;63966;47.914;22.266;2024-01-30T16:38:49;1.98;78.16
75387;DHT22;63966;47.914;22.266;2024-01-30T16:41:53;1.98;78.34
75387;DHT22;63966;47.914;22.266;2024-01-30T16:44:56;1.88;78.59
75387;DHT22;63966;47.914;22.266;2024-01-30T16:48:00;1.86;78.87
75387;DHT22;63966;47.914;22.266;2024-01-30T16:51:03;1.81;78.83
75387;DHT22;63966;47.914;22.266;2024-01-30T16:54:07;1.87;79.23
75387;DHT22;63966;47.914;22.266;2024-01-30T16:57:10;1.91;78.92
75387;DHT22;63966;47.914;22.266;2024-01-30T17:00:14;1.77;79.09
75387;DHT22;63966;47.914;22.266;2024-01-30T17:03:18;1.74;79.42
75387;DHT22;63966;47.914;22.266;2024-01-30T17:06:22;1.73;79.40
75387;DHT22;63966;47.914;22.266;2024-01-30T17:09:25;1.62;79.33
75387;DHT22;63966;47.914;22.266;2024-01-30T17:12:29;1.49;79.88
75387;DHT22;63966;47.914;22.266;2024-01-30T17:15:35;1.43;79.82
75387;DHT22;63966;47.914;22.266;2024-01-30T17:18:39;1.29;80.01
75387;DHT22;63966;47.914;22.266;2024-01-30T17:21:42;1.24;80.38
75387;DHT22;63966;47.914;22.266;2024-01-30T17:24:46;1.19;80.68
75387;DHT22;63966;47.914;22.266;2024-01-30T17:27:53;1.12;80.64
75387;DHT22;63966;47.914;22.266;2024-01-30T17:30:57;0.98;81.11
75387;DHT22;63966;47.914;22.266;2024-01-30T17:34:01;0.88;81.51
75387;DHT22;63966;47.914;22.266;2024-01-30T17:37:05;0.76;81.91
75387;DHT22;63966;47.914;22.266;2024-01-30T17:40:09;0.52;82.59
75387;DHT22;63966;47.914;22.266;2024-01-30T17:43:13;0.53;82.96
75387;DHT22;63966;47.914;22.266;2024-01-30T17:46:16;0.50;82.94
75387;DHT22;63966;47.914;22.266;2024-01-30T17:49:20;0.42;82.84
75387;DHT22;63966;47.914;22.266;2024-01-30T17:52:23;0.43;82.83
75387;DHT22;63966;47.914;22.266;2024-01-30T17:55:27;0.40;82.73
75387;DHT22;63966;47.914;22.266;2024-01-30T17:58:31;0.26;83.22
75387;DHT22;63966;47.914;22.266;2024-01-30T18:01:34;0.08;84.13
75387;DHT22;63966;47.914;22.266;2024-01-30T18:04:39;-0.02;84.60
75387;DHT22;63966;47.914;22.266;2024-01-30T18:07:43;-0.01;84.43
75387;DHT22;63966;47.914;22.266;2024-01-30T18:10:47;0.03;84.31
75387;DHT22;63966;47.914;22.266;2024-01-30T18:13:50;0.01;84.40
75387;DHT22;63966;47.914;22.266;2024-01-30T18:16:55;-0.01;84.39
75387;DHT22;63966;47.914;22.266;2024-01-30T18:19:59;-0.08;84.84
75387;DHT22;63966;47.914;22.266;2024-01-30T18:23:03;-0.15;85.04
75387;DHT22;63966;47.914;22.266;2024-01-30T18:26:07;-0.40;86.56
75387;DHT22;63966;47.914;22.266;2024-01-30T18:29:11;-0.15;85.78
75387;DHT22;63966;47.914;22.266;2024-01-30T18:32:14;-0.80;87.91
75387;DHT22;63966;47.914;22.266;2024-01-30T18:35:18;-0.88;88.51
75387;DHT22;63966;47.914;22.266;2024-01-30T18:38:22;-0.87;87.74
75387;DHT22;63966;47.914;22.266;2024-01-30T18:41:26;-0.92;87.97
75387;DHT22;63966;47.914;22.266;2024-01-30T18:44:30;-0.80;87.35
75387;DHT22;63966;47.914;22.266;2024-01-30T18:47:33;-0.77;86.82
75387;DHT22;63966;47.914;22.266;2024-01-30T18:50:37;-0.49;86.14
75387;DHT22;63966;47.914;22.266;2024-01-30T18:53:41;-0.71;85.95
75387;DHT22;63966;47.914;22.266;2024-01-30T18:56:45;-0.78;86.74
75387;DHT22;63966;47.914;22.266;2024-01-30T18:59:49;-0.75;87.09
75387;DHT22;63966;47.914;22.266;2024-01-30T19:02:52;-0.77;86.96
75387;DHT22;63966;47.914;22.266;2024-01-30T19:05:56;-0.83;87.35
75387;DHT22;63966;47.914;22.266;2024-01-30T19:09:00;-0.73;87.20
75387;DHT22;63966;47.914;22.266;2024-01-30T19:12:04;-0.92;87.82
75387;DHT22;63966;47.914;22.266;2024-01-30T19:15:08;-0.98;87.71
75387;DHT22;63966;47.914;22.266;2024-01-30T19:18:13;-0.94;87.35
75387;DHT22;63966;47.914;22.266;2024-01-30T19:21:17;-0.94;87.08
75387;DHT22;63966;47.914;22.266;2024-01-30T19:24:21;-0.87;86.60
75387;DHT22;63966;47.914;22.266;2024-01-30T19:27:24;-1.12;87.35